createdAt,value
2023-05-03T00:01:03.419Z,79.22
2023-05-03T00:03:53.219Z,80.31
2023-05-03T00:06:40.013Z,79.02
2023-05-03T00:09:28.215Z,78.96
2023-05-03T00:12:15.085Z,79.76
2023-05-03T00:15:01.752Z,80.37
2023-05-03T00:17:48.587Z,80.86
2023-05-03T00:20:37.170Z,78.97
2023-05-03T00:23:23.866Z,81.23
2023-05-03T00:26:12.020Z,81.89
2023-05-03T00:28:59.257Z,81.27
2023-05-03T00:31:46.154Z,81.57
2023-05-03T00:34:32.835Z,79.44
2023-05-03T00:37:19.692Z,79.33
2023-05-03T00:40:08.808Z,79.98
2023-05-03T00:42:56.769Z,80.50
2023-05-03T00:45:46.370Z,81.15
2023-05-03T00:48:32.810Z,81.74
2023-05-03T00:51:21.911Z,79.76
2023-05-03T00:54:09.183Z,78.77
2023-05-03T00:56:57.606Z,79.77
2023-05-03T00:59:45.420Z,79.92
2023-05-03T01:02:32.673Z,81.15
2023-05-03T01:05:19.351Z,80.97
2023-05-03T01:08:12.558Z,80.70
2023-05-03T01:11:05.794Z,83.02
2023-05-03T01:13:57.348Z,80.33
2023-05-03T01:16:50.996Z,80.28
2023-05-03T01:19:39.153Z,80.91
2023-05-03T01:22:34.211Z,81.24
2023-05-03T01:25:22.273Z,82.94
2023-05-03T01:28:09.310Z,81.33
2023-05-03T01:30:57.978Z,83.33
2023-05-03T01:33:54.865Z,82.75
2023-05-03T01:36:43.956Z,83.79
2023-05-03T01:39:38.492Z,86.35
2023-05-03T01:42:28.930Z,85.54
2023-05-03T01:45:15.887Z,85.27
2023-05-03T01:48:02.675Z,85.01
2023-05-03T01:50:49.312Z,85.07
2023-05-03T01:53:37.719Z,87.51
2023-05-03T01:56:24.424Z,87.47
2023-05-03T01:59:12.517Z,86.38
2023-05-03T02:01:59.305Z,85.38
2023-05-03T02:04:46.373Z,86.73
2023-05-03T02:07:33.083Z,84.74
2023-05-03T02:10:20.178Z,85.26
2023-05-03T02:13:06.880Z,86.95
2023-05-03T02:15:55.618Z,87.29
2023-05-03T02:18:43.449Z,87.20
2023-05-03T02:21:30.254Z,88.45
2023-05-03T02:24:17.698Z,91.99
2023-05-03T02:27:05.126Z,93.19
2023-05-03T02:29:51.766Z,91.86
2023-05-03T02:32:39.933Z,89.40
2023-05-03T02:35:27.983Z,91.89
2023-05-03T02:38:14.753Z,91.03
2023-05-03T02:41:01.582Z,91.40
2023-05-03T02:43:49.869Z,90.67
2023-05-03T02:46:36.808Z,90.31
2023-05-03T02:49:24.835Z,90.99
2023-05-03T02:52:11.851Z,91.85
2023-05-03T02:54:58.707Z,90.07
2023-05-03T02:57:45.460Z,91.43
2023-05-03T03:00:35.330Z,93.09
2023-05-03T03:03:22.265Z,92.74
2023-05-03T03:06:11.363Z,92.02
2023-05-03T03:08:58.571Z,93.84
2023-05-03T03:11:45.433Z,94.75
2023-05-03T03:14:33.247Z,93.00
2023-05-03T03:17:19.898Z,92.88
2023-05-03T03:20:07.650Z,95.00
2023-05-03T03:22:56.491Z,92.42
2023-05-03T03:25:43.346Z,93.01
2023-05-03T03:28:29.976Z,91.97
2023-05-03T03:31:22.786Z,92.35
2023-05-03T03:34:09.645Z,94.22
2023-05-03T03:36:56.908Z,95.13
2023-05-03T03:39:49.191Z,95.50
2023-05-03T03:42:35.963Z,95.84
2023-05-03T03:45:23.834Z,95.47
2023-05-03T03:48:10.468Z,96.36
2023-05-03T03:50:57.450Z,94.69
2023-05-03T03:53:51.122Z,94.24
2023-05-03T03:56:39.222Z,94.60
2023-05-03T03:59:26.446Z,93.19
2023-05-03T04:02:13.460Z,94.53
2023-05-03T04:05:00.281Z,94.40
2023-05-03T04:07:47.096Z,95.69
2023-05-03T04:10:36.001Z,95.65
2023-05-03T04:13:24.388Z,95.99
2023-05-03T04:16:13.237Z,93.90
2023-05-03T04:19:01.606Z,94.09
2023-05-03T04:21:49.210Z,93.86
2023-05-03T04:24:40.757Z,93.96
2023-05-03T04:27:30.054Z,92.66
2023-05-03T04:30:18.600Z,89.78
2023-05-03T04:33:10.542Z,88.82
2023-05-03T04:35:58.514Z,87.14
2023-05-03T04:38:45.841Z,85.85
2023-05-03T04:41:33.433Z,86.17
2023-05-03T04:44:21.300Z,84.97
2023-05-03T04:47:11.903Z,85.75
2023-05-03T04:50:00.858Z,84.57
2023-05-03T04:52:48.161Z,84.64
2023-05-03T04:55:35.266Z,84.22
2023-05-03T04:58:24.227Z,83.48
2023-05-03T05:01:11.166Z,81.65
2023-05-03T05:03:59.639Z,74.50
2023-05-03T05:06:54.744Z,63.74
2023-05-03T05:09:46.080Z,57.73
2023-05-03T05:12:32.925Z,53.13
2023-05-03T05:15:22.656Z,50.91
2023-05-03T05:18:09.379Z,46.59
2023-05-03T05:20:59.527Z,46.07
2023-05-03T05:23:47.292Z,44.65
2023-05-03T05:26:34.230Z,44.07
2023-05-03T05:29:20.925Z,42.63
2023-05-03T05:32:07.677Z,42.27
2023-05-03T05:34:55.710Z,42.88
2023-05-03T05:37:46.436Z,42.63
2023-05-03T05:40:34.116Z,42.64
2023-05-03T05:43:21.290Z,42.68
2023-05-03T05:46:09.597Z,42.03
2023-05-03T05:48:56.666Z,41.17
2023-05-03T05:51:43.341Z,42.81
2023-05-03T05:54:32.043Z,44.98
2023-05-03T05:57:19.797Z,46.35
2023-05-03T06:00:14.649Z,46.65
2023-05-03T06:03:02.738Z,47.13
2023-05-03T06:05:49.938Z,45.44
2023-05-03T06:08:36.835Z,46.13
2023-05-03T06:11:26.808Z,47.72
2023-05-03T06:14:15.361Z,49.80
2023-05-03T06:17:02.212Z,50.79
2023-05-03T06:19:49.482Z,48.54
2023-05-03T06:22:37.903Z,48.27
2023-05-03T06:25:25.172Z,46.76
2023-05-03T06:28:13.359Z,45.40
2023-05-03T06:31:00.228Z,46.25
2023-05-03T06:33:48.033Z,47.73
2023-05-03T06:36:35.685Z,49.22
2023-05-03T06:39:23.214Z,51.54
2023-05-03T06:42:10.555Z,52.54
2023-05-03T06:45:01.348Z,52.30
2023-05-03T06:47:48.895Z,55.14
2023-05-03T06:50:36.480Z,53.67
2023-05-03T06:53:23.262Z,54.75
2023-05-03T06:56:10.084Z,56.28
2023-05-03T06:58:56.938Z,54.47
2023-05-03T07:01:45.034Z,53.98
2023-05-03T07:04:31.813Z,55.92
2023-05-03T07:07:18.887Z,53.84
2023-05-03T07:10:06.182Z,51.84
2023-05-03T07:12:53.212Z,52.30
2023-05-03T07:15:40.174Z,55.09
2023-05-03T07:18:28.400Z,52.91
2023-05-03T07:21:15.572Z,53.61
2023-05-03T07:24:02.495Z,54.11
2023-05-03T07:26:49.267Z,54.33
2023-05-03T07:29:36.471Z,52.80
2023-05-03T07:32:23.306Z,53.78
2023-05-03T07:35:11.684Z,53.17
2023-05-03T07:37:58.301Z,53.16
2023-05-03T07:40:45.675Z,52.55
2023-05-03T07:43:32.438Z,52.91
2023-05-03T07:46:19.219Z,51.04
2023-05-03T07:49:07.952Z,50.57
2023-05-03T07:51:55.776Z,47.58
2023-05-03T07:54:43.786Z,49.54
2023-05-03T07:57:31.198Z,49.81
2023-05-03T08:00:20.232Z,48.42
2023-05-03T08:03:07.392Z,51.50
2023-05-03T08:05:53.862Z,47.32
2023-05-03T08:08:42.795Z,46.97
2023-05-03T08:11:29.837Z,47.71
2023-05-03T08:14:17.136Z,46.25
2023-05-03T08:17:04.863Z,45.32
2023-05-03T08:19:52.057Z,48.10
2023-05-03T08:22:40.560Z,48.34
2023-05-03T08:25:28.604Z,45.91
2023-05-03T08:28:15.270Z,44.09
2023-05-03T08:31:03.771Z,45.07
2023-05-03T08:33:50.892Z,49.68
2023-05-03T08:36:38.293Z,49.66
2023-05-03T08:39:26.247Z,46.85
2023-05-03T08:42:14.019Z,43.87
2023-05-03T08:45:00.775Z,43.31
2023-05-03T08:47:47.338Z,44.90
2023-05-03T08:50:42.055Z,40.64
2023-05-03T08:53:28.678Z,39.31
2023-05-03T08:56:22.466Z,39.72
2023-05-03T08:59:11.768Z,38.60
2023-05-03T09:01:58.555Z,38.70
2023-05-03T09:04:46.550Z,39.68
2023-05-03T09:07:37.716Z,38.06
2023-05-03T09:10:24.648Z,38.45
2023-05-03T09:13:12.157Z,38.56
2023-05-03T09:16:00.296Z,36.91
2023-05-03T09:18:57.910Z,37.05
2023-05-03T09:21:47.208Z,35.60
2023-05-03T09:24:34.262Z,37.83
2023-05-03T09:27:21.584Z,39.96
2023-05-03T09:30:26.879Z,37.97
2023-05-03T09:33:20.526Z,36.02
2023-05-03T09:36:07.824Z,37.40
2023-05-03T09:38:56.099Z,38.09
2023-05-03T09:41:42.654Z,38.27
2023-05-03T09:44:42.943Z,37.78
2023-05-03T09:47:32.226Z,36.82
2023-05-03T09:50:20.666Z,36.47
2023-05-03T09:53:08.463Z,34.74
2023-05-03T09:55:56.254Z,38.24
2023-05-03T09:58:44.016Z,35.89
2023-05-03T10:01:32.095Z,35.20
2023-05-03T10:04:22.181Z,36.50
2023-05-03T10:07:14.330Z,35.02
2023-05-03T10:10:01.462Z,36.44
2023-05-03T10:12:49.671Z,34.96
2023-05-03T10:15:38.732Z,36.25
2023-05-03T10:18:30.178Z,36.96
2023-05-03T10:21:32.162Z,33.84
2023-05-03T10:24:20.295Z,33.22
2023-05-03T10:27:08.538Z,35.35
2023-05-03T10:29:56.297Z,35.35
2023-05-03T10:32:44.647Z,35.52
2023-05-03T10:35:31.393Z,35.54
2023-05-03T10:38:22.094Z,36.30
2023-05-03T10:41:10.448Z,36.27
2023-05-03T10:43:58.088Z,35.55
2023-05-03T10:46:45.274Z,36.33
2023-05-03T10:49:32.128Z,39.24
2023-05-03T10:52:47.101Z,37.38
2023-05-03T10:55:34.790Z,38.15
2023-05-03T10:58:23.197Z,38.41
2023-05-03T11:01:11.716Z,35.09
2023-05-03T11:04:05.826Z,33.97
2023-05-03T11:06:56.923Z,34.50
2023-05-03T11:09:44.551Z,35.30
2023-05-03T11:12:32.367Z,35.42
2023-05-03T11:15:21.292Z,35.65
2023-05-03T11:18:08.770Z,34.96
2023-05-03T11:20:56.075Z,35.72
2023-05-03T11:23:43.849Z,38.01
2023-05-03T11:26:30.427Z,35.79
2023-05-03T11:29:17.810Z,36.31
2023-05-03T11:32:09.054Z,37.29
2023-05-03T11:34:56.172Z,36.63
2023-05-03T11:37:44.344Z,36.34
2023-05-03T11:40:31.633Z,36.70
2023-05-03T11:43:18.166Z,37.19
2023-05-03T11:46:05.900Z,37.29
2023-05-03T11:48:54.268Z,36.21
2023-05-03T11:51:41.647Z,36.95
2023-05-03T11:54:28.468Z,36.94
2023-05-03T11:57:16.261Z,36.60
2023-05-03T12:00:14.571Z,37.47
2023-05-03T12:03:01.468Z,36.60
2023-05-03T12:05:53.196Z,36.94
2023-05-03T12:08:43.229Z,36.11
2023-05-03T12:11:33.399Z,37.48
2023-05-03T12:14:22.328Z,38.72
2023-05-03T12:17:11.294Z,38.68
2023-05-03T12:21:05.167Z,36.36
2023-05-03T12:23:26.671Z,36.75
2023-05-03T12:26:15.062Z,35.77
2023-05-03T12:29:02.591Z,36.21
2023-05-03T12:31:52.920Z,36.05
2023-05-03T12:34:41.921Z,36.70
2023-05-03T12:37:33.283Z,34.59
2023-05-03T12:40:33.568Z,35.67
2023-05-03T12:43:22.390Z,34.21
2023-05-03T12:49:07.733Z,37.60
2023-05-03T12:52:23.063Z,35.84
2023-05-03T12:55:11.152Z,36.40
2023-05-03T12:58:26.820Z,35.38
2023-05-03T13:04:11.762Z,35.11
2023-05-03T13:07:03.107Z,35.65
2023-05-03T13:12:39.539Z,34.68
2023-05-03T13:15:27.799Z,34.98
2023-05-03T13:18:14.950Z,35.56
2023-05-03T13:21:02.213Z,35.10
2023-05-03T13:23:49.585Z,34.33
2023-05-03T13:26:36.708Z,32.76
2023-05-03T13:29:24.273Z,33.47
2023-05-03T13:32:12.913Z,34.47
2023-05-03T13:34:59.724Z,34.12
2023-05-03T13:37:46.546Z,32.44
2023-05-03T13:40:33.221Z,31.86
2023-05-03T13:43:19.967Z,33.02
2023-05-03T13:46:06.859Z,34.29
2023-05-03T13:48:56.583Z,31.83
2023-05-03T13:51:50.153Z,31.17
2023-05-03T13:54:38.233Z,33.97
2023-05-03T13:57:24.619Z,32.88
2023-05-03T14:00:13.287Z,31.91
2023-05-03T14:03:00.026Z,32.33
2023-05-03T14:05:48.387Z,31.54
2023-05-03T14:08:35.173Z,31.25
2023-05-03T14:11:22.866Z,33.84
2023-05-03T14:14:09.384Z,33.49
2023-05-03T14:16:56.377Z,33.47
2023-05-03T14:19:42.813Z,33.46
2023-05-03T14:22:31.045Z,32.71
2023-05-03T14:25:17.790Z,32.08
2023-05-03T14:28:05.343Z,33.54
2023-05-03T14:30:52.608Z,32.37
2023-05-03T14:33:39.258Z,30.88
2023-05-03T14:36:27.063Z,33.13
2023-05-03T14:39:16.509Z,33.97
2023-05-03T14:42:03.458Z,34.09
2023-05-03T14:44:50.442Z,32.89
2023-05-03T14:47:37.411Z,33.16
2023-05-03T14:50:24.317Z,32.16
2023-05-03T14:53:11.300Z,32.14
2023-05-03T14:55:59.271Z,30.98
2023-05-03T14:58:46.170Z,31.12
2023-05-03T15:01:32.857Z,30.46
2023-05-03T15:04:19.519Z,29.43
2023-05-03T15:07:06.747Z,30.27
2023-05-03T15:09:53.619Z,29.93
2023-05-03T15:12:42.314Z,30.51
2023-05-03T15:15:29.010Z,31.33
2023-05-03T15:18:18.768Z,34.28
2023-05-03T15:21:07.404Z,32.96
2023-05-03T15:23:54.443Z,32.08
2023-05-03T15:26:41.465Z,31.34
2023-05-03T15:29:29.486Z,30.84
2023-05-03T15:32:16.447Z,32.02
2023-05-03T15:35:03.134Z,31.52
2023-05-03T15:37:49.873Z,32.48
2023-05-03T15:40:36.765Z,31.63
2023-05-03T15:43:23.514Z,32.38
2023-05-03T15:46:11.842Z,32.73
2023-05-03T15:48:58.634Z,31.86
2023-05-03T15:51:45.434Z,32.73
2023-05-03T15:54:32.180Z,32.57
2023-05-03T15:57:19.740Z,33.49
2023-05-03T16:00:13.415Z,31.55
2023-05-03T16:03:01.795Z,31.38
2023-05-03T16:05:48.798Z,32.54
2023-05-03T16:08:35.576Z,32.27
2023-05-03T16:11:22.567Z,31.26
2023-05-03T16:14:09.732Z,32.82
2023-05-03T16:16:56.372Z,32.21
2023-05-03T16:19:44.793Z,32.85
2023-05-03T16:22:31.630Z,33.54
2023-05-03T16:25:19.009Z,33.36
2023-05-03T16:28:05.648Z,34.16
2023-05-03T16:30:52.138Z,34.81
2023-05-03T16:33:38.971Z,34.05
2023-05-03T16:36:28.092Z,33.86
2023-05-03T16:39:15.742Z,33.85
2023-05-03T16:42:02.864Z,32.78
2023-05-03T16:44:49.724Z,31.81
2023-05-03T16:47:36.506Z,33.13
2023-05-03T16:50:23.383Z,33.40
2023-05-03T16:53:13.226Z,33.73
2023-05-03T16:56:00.004Z,34.93
2023-05-03T16:58:47.672Z,35.27
2023-05-03T17:01:34.477Z,36.48
2023-05-03T17:04:21.399Z,36.63
2023-05-03T17:07:07.864Z,36.90
2023-05-03T17:09:56.045Z,37.42
2023-05-03T17:12:42.831Z,37.74
2023-05-03T17:15:29.877Z,39.24
2023-05-03T17:18:16.665Z,40.41
2023-05-03T17:21:04.747Z,39.42
2023-05-03T17:23:51.677Z,40.00
2023-05-03T17:26:40.228Z,40.40
2023-05-03T17:29:27.517Z,40.33
2023-05-03T17:32:14.905Z,39.80
2023-05-03T17:35:01.693Z,40.90
2023-05-03T17:37:48.450Z,43.00
2023-05-03T17:40:36.725Z,41.97
2023-05-03T17:43:24.477Z,42.15
2023-05-03T17:46:14.653Z,44.73
2023-05-03T17:49:01.665Z,43.68
2023-05-03T17:51:48.929Z,44.24
2023-05-03T17:54:36.459Z,45.08
2023-05-03T17:57:22.884Z,45.46
2023-05-03T18:00:15.519Z,46.11
2023-05-03T18:03:08.686Z,47.01
2023-05-03T18:05:55.880Z,48.27
2023-05-03T18:08:42.811Z,49.43
2023-05-03T18:11:30.949Z,49.27
2023-05-03T18:14:18.204Z,52.57
2023-05-03T18:17:07.524Z,50.81
2023-05-03T18:19:53.999Z,50.91
2023-05-03T18:22:40.712Z,53.96
2023-05-03T18:25:27.600Z,54.90
2023-05-03T18:28:14.360Z,57.35
2023-05-03T18:31:01.186Z,54.96
2023-05-03T18:33:49.531Z,56.52
2023-05-03T18:36:36.317Z,55.92
2023-05-03T18:39:23.289Z,56.14
2023-05-03T18:42:10.171Z,56.30
2023-05-03T18:44:56.966Z,58.89
2023-05-03T18:47:43.555Z,60.02
2023-05-03T18:50:33.642Z,59.81
2023-05-03T18:53:20.903Z,58.08
2023-05-03T18:56:09.248Z,58.46
2023-05-03T18:58:56.363Z,59.08
2023-05-03T19:01:44.685Z,62.80
2023-05-03T19:04:31.595Z,64.00
2023-05-03T19:07:21.497Z,63.73
2023-05-03T19:10:09.932Z,62.18
2023-05-03T19:12:58.252Z,64.30
2023-05-03T19:15:45.727Z,66.36
2023-05-03T19:18:34.294Z,65.98
2023-05-03T19:21:22.412Z,65.12
2023-05-03T19:24:15.600Z,67.28
2023-05-03T19:27:02.312Z,66.88
2023-05-03T19:29:49.045Z,67.73
2023-05-03T19:35:40.643Z,67.27
2023-05-03T19:38:27.560Z,67.28
2023-05-03T19:41:15.504Z,66.88
2023-05-03T19:44:02.428Z,67.65
2023-05-03T19:46:52.705Z,68.24
2023-05-03T19:49:40.520Z,67.68
2023-05-03T19:52:27.393Z,66.58
2023-05-03T19:55:14.501Z,67.77
2023-05-03T19:58:02.356Z,68.95
2023-05-03T20:00:49.054Z,68.61
2023-05-03T20:03:35.933Z,68.66
2023-05-03T20:06:22.994Z,68.95
2023-05-03T20:09:09.669Z,69.50
2023-05-03T20:11:58.844Z,72.33
2023-05-03T20:14:47.242Z,72.57
2023-05-03T20:17:33.803Z,73.29
2023-05-03T20:20:20.577Z,72.28
2023-05-03T20:23:07.279Z,73.62
2023-05-03T20:25:54.221Z,75.98
2023-05-03T20:28:40.754Z,74.81
2023-05-03T20:31:29.172Z,73.64
2023-05-03T20:34:15.994Z,75.10
2023-05-03T20:37:03.594Z,75.51
2023-05-03T20:39:50.195Z,75.39
2023-05-03T20:42:36.935Z,74.52
2023-05-03T20:45:23.637Z,78.10
2023-05-03T20:48:11.817Z,80.79
2023-05-03T20:51:00.861Z,81.40
2023-05-03T20:53:47.460Z,80.81
2023-05-03T20:56:34.471Z,79.87
2023-05-03T20:59:21.040Z,81.90
2023-05-03T21:02:07.855Z,80.77
2023-05-03T21:04:55.913Z,82.37
2023-05-03T21:07:42.709Z,83.16
2023-05-03T21:10:29.401Z,80.46
2023-05-03T21:13:16.197Z,81.47
2023-05-03T21:16:03.026Z,82.41
2023-05-03T21:18:49.727Z,82.68
2023-05-03T21:21:38.163Z,82.31
2023-05-03T21:24:27.522Z,82.76
2023-05-03T21:27:14.400Z,83.45
2023-05-03T21:30:01.830Z,84.25
2023-05-03T21:32:49.753Z,85.91
2023-05-03T21:35:36.271Z,86.11
2023-05-03T21:38:24.430Z,86.39
2023-05-03T21:41:11.471Z,88.27
2023-05-03T21:43:58.349Z,89.92
2023-05-03T21:46:45.422Z,89.42
2023-05-03T21:49:32.301Z,90.71
2023-05-03T21:52:19.013Z,90.21
2023-05-03T21:55:08.506Z,93.80
2023-05-03T21:57:58.278Z,92.95
2023-05-03T22:00:47.113Z,92.35
2023-05-03T22:03:38.341Z,92.51
2023-05-03T22:06:28.452Z,89.50
2023-05-03T22:09:15.403Z,88.91
2023-05-03T22:12:19.133Z,90.60
2023-05-03T22:15:10.896Z,90.09
2023-05-03T22:17:57.978Z,92.46
2023-05-03T22:20:44.328Z,93.42
2023-05-03T22:23:31.628Z,93.66
2023-05-03T22:26:18.445Z,93.09
2023-05-03T22:29:06.598Z,92.30
2023-05-03T22:31:53.673Z,91.36
2023-05-03T22:34:40.586Z,91.62
2023-05-03T22:37:27.218Z,92.09
2023-05-03T22:40:20.151Z,92.65
2023-05-03T22:43:08.102Z,92.01
2023-05-03T22:45:56.356Z,92.06
2023-05-03T22:48:43.110Z,92.44
2023-05-03T22:51:29.743Z,93.37
2023-05-03T22:54:16.496Z,94.47
2023-05-03T22:57:03.384Z,94.13
2023-05-03T22:59:50.058Z,95.38
2023-05-03T23:02:38.206Z,95.34
2023-05-03T23:05:24.794Z,95.22
2023-05-03T23:08:11.655Z,96.07
2023-05-03T23:10:59.594Z,95.26
2023-05-03T23:13:46.467Z,96.60
2023-05-03T23:16:33.799Z,96.45
2023-05-03T23:19:21.887Z,97.44
2023-05-03T23:22:09.254Z,96.54
2023-05-03T23:24:55.798Z,95.82
2023-05-03T23:27:42.541Z,95.42
2023-05-03T23:30:29.813Z,95.44
2023-05-03T23:33:17.230Z,97.09
2023-05-03T23:36:06.503Z,97.23
2023-05-03T23:38:53.242Z,97.45
2023-05-03T23:41:39.791Z,98.59
2023-05-03T23:44:38.513Z,99.40
2023-05-03T23:47:33.524Z,99.24
2023-05-03T23:50:20.491Z,98.37
2023-05-03T23:53:08.703Z,98.94
2023-05-03T23:55:55.258Z,99.08
2023-05-03T23:58:42.050Z,99.95
